Historique des mesures à Cassis (13260), France
Quotidien Résumé Avril 18, 2017 Unités:  Métrique    US   Métrique/US
« Précédent (Jour)
Suivant (Jour) »
Quotidien Hebdomadaire Mensuel Annuel Période au choix
  Maximum: Minimum: Moyenne:
Température: TemperatureC °C 11.9 °C 13.9 °C
Point de rosée: DewpointC °C -4.7 °C 1.1 °C
Humidité: Humidity % 27 % 40 %
Vitesse du vent: 0 km/h 5.6 km/h 38.1 km/h
Rafales: 0 km/h - -
Vent:- - South
Pression: PressurehPa hPa 1005.6 hPa -
Précipitations: 0.0 mm    
Historical Graphs
 
 
Mesures pour : Avril 18, 2017
Heure Temperature Point de rosée Pression Vent Vitesse du vent Rafales Humidité Pluie (par heure) Conditions
TemperatureC °C DewpointC °C PressurehPa hPa Calm     Humidity % HourlyPrecipMM mm SoftwareType W/m2
00:11 17.4 °C 3.3 °C 1009.4 hPa WNW 44.6 km/h 59.1 km/h 39 % 0.0 mm open2300-1.11 W/m2
01:11 15.9 °C 2.6 °C 1008.7 hPa North 38.3 km/h 46.3 km/h 41 % 0.0 mm open2300-1.11 W/m2
02:11 14.4 °C 3.8 °C 1008.4 hPa NNW 49.7 km/h 66.6 km/h 49 % 0.0 mm open2300-1.11 W/m2
03:11 14.1 °C 3.9 °C 1008.0 hPa NW 52.8 km/h 86.3 km/h 50 % 0.0 mm open2300-1.11 W/m2
04:11 13.6 °C 4.2 °C 1007.7 hPa NNE 50.5 km/h 50.5 km/h 53 % 0.0 mm open2300-1.11 W/m2
05:11 13.4 °C 4.2 °C 1007.3 hPa NNW 37 km/h 66.6 km/h 54 % 0.0 mm open2300-1.11 W/m2
06:11 12.9 °C 4.0 °C 1007.3 hPa NNW 33.2 km/h 39.9 km/h 55 % 0.0 mm open2300-1.11 W/m2
07:11 12.3 °C 4.0 °C 1007.7 hPa NW 42.2 km/h 53.9 km/h 57 % 0.0 mm open2300-1.11 W/m2
08:11 12.9 °C 3.8 °C 1008.0 hPa NW 35.2 km/h 44.6 km/h 54 % 0.0 mm open2300-1.11 W/m2
09:11 13.0 °C 4.1 °C 1008.0 hPa North 44.1 km/h 44.1 km/h 55 % 0.0 mm open2300-1.11 W/m2
10:11 13.8 °C 4.1 °C 1007.7 hPa WNW 47.3 km/h 47.3 km/h 52 % 0.0 mm open2300-1.11 W/m2
11:10 15.4 °C 4.1 °C 1007.7 hPa NNE 23 km/h 46.8 km/h 47 % 0.0 mm open2300-1.11 W/m2
12:11 15.9 °C 3.3 °C 1007.7 hPa NW 42.2 km/h 54.4 km/h 43 % 0.0 mm open2300-1.11 W/m2
13:11 16.7 °C 2.6 °C 1007.3 hPa NNE 37 km/h 76.4 km/h 39 % 0.0 mm open2300-1.11 W/m2
14:11 16.9 °C 1.6 °C 1007.3 hPa North 31.4 km/h 42.2 km/h 36 % 0.0 mm open2300-1.11 W/m2
15:11 16.8 °C -0.9 °C 1007.3 hPa North 40.7 km/h 40.7 km/h 30 % 0.0 mm open2300-1.11 W/m2
16:11 16.6 °C -2.2 °C 1006.3 hPa North 53.3 km/h 68.9 km/h 28 % 0.0 mm open2300-1.11 W/m2
18:11 15.9 °C -3.3 °C 1005.6 hPa North 51 km/h 51 km/h 27 % 0.0 mm open2300-1.11 W/m2
19:11 15.0 °C -4.0 °C 1006.0 hPa NW 34.1 km/h 104.3 km/h 27 % 0.0 mm open2300-1.11 W/m2
20:11 13.8 °C -4.6 °C 1008.7 hPa NNW 43.5 km/h 43.5 km/h 28 % 0.0 mm open2300-1.11 W/m2
21:11 12.9 °C -3.9 °C 1010.0 hPa North 39.4 km/h 39.4 km/h 31 % 0.0 mm open2300-1.11 W/m2
22:11 12.2 °C -4.4 °C 1011.4 hPa NNW 39.4 km/h 48.1 km/h 31 % 0.0 mm open2300-1.11 W/m2
23:11 11.9 °C -4.7 °C 1012.8 hPa NNE 5.6 km/h 17.4 km/h 31 % 0.0 mm open2300-1.11 W/m2
Observations météo à CASSIS
WU-History script by Weather Underground - 1 mb